createdAt,value
2023-05-19T00:00:24.192Z,49.00
2023-05-19T00:01:24.179Z,49.19
2023-05-19T00:02:24.339Z,54.46
2023-05-19T00:03:24.203Z,42.36
2023-05-19T00:04:24.158Z,41.98
2023-05-19T00:05:24.184Z,42.62
2023-05-19T00:06:24.162Z,43.12
2023-05-19T00:07:24.162Z,44.67
2023-05-19T00:08:24.150Z,44.60
2023-05-19T00:09:24.149Z,46.68
2023-05-19T00:10:24.151Z,51.95
2023-05-19T00:11:24.157Z,45.27
2023-05-19T00:12:24.164Z,48.11
2023-05-19T00:13:24.154Z,48.71
2023-05-19T00:14:24.146Z,48.42
2023-05-19T00:15:24.164Z,47.03
2023-05-19T00:16:24.358Z,48.41
2023-05-19T00:17:24.313Z,47.77
2023-05-19T00:18:24.350Z,48.14
2023-05-19T00:19:24.542Z,47.73
2023-05-19T00:20:24.457Z,49.04
2023-05-19T00:21:24.528Z,46.91
2023-05-19T00:22:24.577Z,49.31
2023-05-19T00:23:24.664Z,51.48
2023-05-19T00:24:24.746Z,51.14
2023-05-19T00:25:24.789Z,49.40
2023-05-19T00:26:24.866Z,50.76
2023-05-19T00:27:24.939Z,51.43
2023-05-19T00:28:24.993Z,48.51
2023-05-19T00:29:25.062Z,46.30
2023-05-19T00:30:25.126Z,48.38
2023-05-19T00:31:25.213Z,51.57
2023-05-19T00:32:25.208Z,46.70
2023-05-19T00:33:25.221Z,56.61
2023-05-19T00:34:25.273Z,52.37
2023-05-19T00:35:25.308Z,51.97
2023-05-19T00:36:25.390Z,50.45
2023-05-19T00:37:25.415Z,49.38
2023-05-19T00:38:25.479Z,58.62
2023-05-19T00:39:25.494Z,50.50
2023-05-19T00:40:25.534Z,50.46
2023-05-19T00:41:25.588Z,57.38
2023-05-19T00:42:25.591Z,53.05
2023-05-19T00:43:25.633Z,55.10
2023-05-19T00:44:25.780Z,54.11
2023-05-19T00:45:25.709Z,49.44
2023-05-19T00:46:25.812Z,52.21
2023-05-19T00:47:25.804Z,54.97
2023-05-19T00:48:25.798Z,53.68
2023-05-19T00:49:25.841Z,52.36
2023-05-19T00:50:25.863Z,56.27
2023-05-19T00:51:25.856Z,55.45
2023-05-19T00:52:25.882Z,55.43
2023-05-19T00:53:25.892Z,52.48
2023-05-19T00:54:25.984Z,54.40
2023-05-19T00:55:26.020Z,51.85
2023-05-19T00:56:26.098Z,49.43
2023-05-19T00:57:26.112Z,49.78
2023-05-19T00:58:26.104Z,51.43
2023-05-19T00:59:26.091Z,55.23
2023-05-19T01:00:26.088Z,51.79
2023-05-19T01:01:26.126Z,55.69
2023-05-19T01:02:26.202Z,55.98
2023-05-19T01:03:26.167Z,54.44
2023-05-19T01:04:26.102Z,60.19
2023-05-19T01:05:26.087Z,53.77
2023-05-19T01:06:26.084Z,48.12
2023-05-19T01:07:26.136Z,58.76
2023-05-19T01:08:26.175Z,55.89
2023-05-19T01:09:26.237Z,54.75
2023-05-19T01:10:26.282Z,63.11
2023-05-19T01:11:26.307Z,61.61
2023-05-19T01:12:26.269Z,56.40
2023-05-19T01:13:26.266Z,58.33
2023-05-19T01:14:26.258Z,64.06
2023-05-19T01:15:26.245Z,59.08
2023-05-19T01:16:26.295Z,57.65
2023-05-19T01:17:26.227Z,59.43
2023-05-19T01:18:26.230Z,57.86
2023-05-19T01:19:26.258Z,55.65
2023-05-19T01:20:26.242Z,54.05
2023-05-19T01:21:26.250Z,57.15
2023-05-19T01:22:26.277Z,52.99
2023-05-19T01:23:26.326Z,54.45
2023-05-19T01:24:26.355Z,55.76
2023-05-19T01:25:26.387Z,55.68
2023-05-19T01:26:26.430Z,52.33
2023-05-19T01:27:26.461Z,53.66
2023-05-19T01:28:26.484Z,58.21
2023-05-19T01:29:26.503Z,57.03
2023-05-19T01:30:26.552Z,58.95
2023-05-19T01:31:26.629Z,60.16
2023-05-19T01:32:26.613Z,56.32
2023-05-19T01:33:26.625Z,55.02
2023-05-19T01:34:26.672Z,59.45
2023-05-19T01:35:26.735Z,56.14
2023-05-19T01:36:26.767Z,60.14
2023-05-19T01:37:26.809Z,56.39
2023-05-19T01:38:26.874Z,52.54
2023-05-19T01:39:26.904Z,56.04
2023-05-19T01:40:26.932Z,59.38
2023-05-19T01:41:26.941Z,57.83
2023-05-19T01:42:27.021Z,60.57
2023-05-19T01:43:27.111Z,59.79
2023-05-19T01:44:27.088Z,60.24
2023-05-19T01:45:27.148Z,62.98
2023-05-19T01:46:27.235Z,57.55
2023-05-19T01:47:27.228Z,60.92
2023-05-19T01:48:27.344Z,54.21
2023-05-19T01:49:27.344Z,57.86
2023-05-19T01:50:27.390Z,59.04
2023-05-19T01:51:27.471Z,64.75
2023-05-19T01:52:27.522Z,68.96
2023-05-19T01:53:27.565Z,54.72
2023-05-19T01:54:27.593Z,59.85
2023-05-19T01:55:27.622Z,68.52
2023-05-19T01:56:27.659Z,57.66
2023-05-19T01:57:27.677Z,56.84
2023-05-19T01:58:27.699Z,58.50
2023-05-19T01:59:27.707Z,58.13
2023-05-19T02:00:27.698Z,58.34
2023-05-19T02:01:27.732Z,59.24
2023-05-19T02:02:27.716Z,60.84
2023-05-19T02:03:27.719Z,59.02
2023-05-19T02:04:27.728Z,58.52
2023-05-19T02:05:27.684Z,58.60
2023-05-19T02:06:27.691Z,61.36
2023-05-19T02:07:27.682Z,60.18
2023-05-19T02:08:27.694Z,63.17
2023-05-19T02:09:27.684Z,64.93
2023-05-19T02:10:27.737Z,59.84
2023-05-19T02:11:27.700Z,63.74
2023-05-19T02:12:27.697Z,66.60
2023-05-19T02:13:27.686Z,59.63
2023-05-19T02:14:27.681Z,63.22
2023-05-19T02:15:27.687Z,58.35
2023-05-19T02:16:27.784Z,52.81
2023-05-19T02:17:27.791Z,56.95
2023-05-19T02:18:27.815Z,64.89
2023-05-19T02:19:28.051Z,59.56
2023-05-19T02:20:28.025Z,59.73
2023-05-19T02:21:27.962Z,57.29
2023-05-19T02:22:28.029Z,63.93
2023-05-19T02:23:28.080Z,60.54
2023-05-19T02:24:28.160Z,59.73
2023-05-19T02:25:28.193Z,64.49
2023-05-19T02:26:28.257Z,63.15
2023-05-19T02:27:28.315Z,62.56
2023-05-19T02:28:28.398Z,62.96
2023-05-19T02:29:28.396Z,58.46
2023-05-19T02:30:28.406Z,68.74
2023-05-19T02:31:28.436Z,68.42
2023-05-19T02:32:28.447Z,58.14
2023-05-19T02:33:28.422Z,61.62
2023-05-19T02:34:28.445Z,62.18
2023-05-19T02:35:28.464Z,64.68
2023-05-19T02:36:28.525Z,61.00
2023-05-19T02:37:28.671Z,60.91
2023-05-19T02:38:28.598Z,63.91
2023-05-19T02:39:28.605Z,61.96
2023-05-19T02:40:28.617Z,71.50
2023-05-19T02:41:28.608Z,62.66
2023-05-19T02:42:28.641Z,65.51
2023-05-19T02:43:28.631Z,61.75
2023-05-19T02:44:28.656Z,62.14
2023-05-19T02:45:28.701Z,60.04
2023-05-19T02:46:28.846Z,68.64
2023-05-19T02:47:28.799Z,64.89
2023-05-19T02:48:28.817Z,54.39
2023-05-19T02:49:28.863Z,58.71
2023-05-19T02:50:28.927Z,52.34
2023-05-19T02:51:28.958Z,31.94
2023-05-19T02:52:29.026Z,25.00
2023-05-19T02:53:29.092Z,28.15
2023-05-19T02:54:29.145Z,27.34
2023-05-19T02:55:29.208Z,25.00
2023-05-19T02:56:29.297Z,27.94
2023-05-19T02:57:29.290Z,31.06
2023-05-19T02:58:29.326Z,25.00
2023-05-19T02:59:29.343Z,25.00
2023-05-19T03:00:29.370Z,28.56
2023-05-19T03:01:29.392Z,27.70
2023-05-19T03:02:29.486Z,22.79
2023-05-19T03:03:29.476Z,33.87
2023-05-19T03:04:29.418Z,30.41
2023-05-19T03:05:29.412Z,28.93
2023-05-19T03:06:29.449Z,25.00
2023-05-19T03:07:29.464Z,32.68
2023-05-19T03:08:29.516Z,23.09
2023-05-19T03:09:29.537Z,32.52
2023-05-19T03:10:29.609Z,22.94
2023-05-19T03:11:29.599Z,30.47
2023-05-19T03:12:29.623Z,33.02
2023-05-19T03:13:29.649Z,25.39
2023-05-19T03:14:29.661Z,29.70
2023-05-19T03:15:29.693Z,28.03
2023-05-19T03:16:29.749Z,25.10
2023-05-19T03:17:29.794Z,27.66
2023-05-19T03:18:29.816Z,28.87
2023-05-19T03:19:29.833Z,28.23
2023-05-19T03:20:29.930Z,27.39
2023-05-19T03:21:29.916Z,25.45
2023-05-19T03:22:29.941Z,25.00
2023-05-19T03:23:29.976Z,31.22
2023-05-19T03:24:30.035Z,29.53
2023-05-19T03:25:30.115Z,28.14
2023-05-19T03:26:30.126Z,28.27
2023-05-19T03:27:30.168Z,25.23
2023-05-19T03:28:30.209Z,28.96
2023-05-19T03:29:30.254Z,27.55
2023-05-19T03:30:30.477Z,26.33
2023-05-19T03:31:30.362Z,28.26
2023-05-19T03:32:30.454Z,25.38
2023-05-19T03:33:30.554Z,27.61
2023-05-19T03:34:30.530Z,25.90
2023-05-19T03:35:30.593Z,28.96
2023-05-19T03:36:30.646Z,25.87
2023-05-19T03:37:30.678Z,26.17
2023-05-19T03:38:30.729Z,25.00
2023-05-19T03:39:30.787Z,26.26
2023-05-19T03:40:31.045Z,25.51
2023-05-19T03:41:30.877Z,27.40
2023-05-19T03:42:30.922Z,26.12
2023-05-19T03:43:30.981Z,25.77
2023-05-19T03:44:31.030Z,26.19
2023-05-19T03:45:31.110Z,27.53
2023-05-19T03:46:31.179Z,26.05
2023-05-19T03:47:31.262Z,26.15
2023-05-19T03:48:31.296Z,25.62
2023-05-19T03:49:31.335Z,25.62
2023-05-19T03:50:31.687Z,25.61
2023-05-19T03:51:31.462Z,25.59
2023-05-19T03:52:31.517Z,25.92
2023-05-19T03:53:31.515Z,26.08
2023-05-19T03:54:31.508Z,26.21
2023-05-19T03:55:31.493Z,23.44
2023-05-19T03:56:31.491Z,25.64
2023-05-19T03:57:31.483Z,22.53
2023-05-19T03:58:31.478Z,26.93
2023-05-19T03:59:31.483Z,28.42
2023-05-19T04:00:31.578Z,25.00
2023-05-19T04:01:31.489Z,26.65
2023-05-19T04:02:31.650Z,28.19
2023-05-19T04:03:31.631Z,27.24
2023-05-19T04:04:31.761Z,26.04
2023-05-19T04:05:31.729Z,25.00
2023-05-19T04:06:31.790Z,27.39
2023-05-19T04:07:31.840Z,29.90
2023-05-19T04:08:31.933Z,26.42
2023-05-19T04:09:31.984Z,26.85
2023-05-19T04:10:32.195Z,29.41
2023-05-19T04:11:32.117Z,26.64
2023-05-19T04:12:32.186Z,27.46
2023-05-19T04:13:32.238Z,26.68
2023-05-19T04:14:32.302Z,25.75
2023-05-19T04:15:32.404Z,27.02
2023-05-19T04:16:32.500Z,27.20
2023-05-19T04:17:32.528Z,25.96
2023-05-19T04:18:32.631Z,26.29
2023-05-19T04:19:32.618Z,26.63
2023-05-19T04:20:32.877Z,28.70
2023-05-19T04:21:32.724Z,27.02
2023-05-19T04:22:32.739Z,26.77
2023-05-19T04:23:32.778Z,28.18
2023-05-19T04:24:32.808Z,25.33
2023-05-19T04:25:32.831Z,27.70
2023-05-19T04:26:32.893Z,26.98
2023-05-19T04:27:32.907Z,26.68
2023-05-19T04:28:32.950Z,25.91
2023-05-19T04:29:32.985Z,30.49
2023-05-19T04:30:33.203Z,27.19
2023-05-19T04:31:33.110Z,26.65
2023-05-19T04:32:33.160Z,27.90
2023-05-19T04:33:33.124Z,27.88
2023-05-19T04:34:33.196Z,25.60
2023-05-19T04:35:33.239Z,26.82
2023-05-19T04:36:33.281Z,29.01
2023-05-19T04:37:33.307Z,27.70
2023-05-19T04:38:33.331Z,27.48
2023-05-19T04:39:33.357Z,26.42
2023-05-19T04:40:33.702Z,25.86
2023-05-19T04:41:33.431Z,27.87
2023-05-19T04:42:33.489Z,26.91
2023-05-19T04:43:33.511Z,27.55
2023-05-19T04:44:33.516Z,28.67
2023-05-19T04:45:33.532Z,27.78
2023-05-19T04:46:33.616Z,28.40
2023-05-19T04:47:33.633Z,26.91
2023-05-19T04:48:33.633Z,28.77
2023-05-19T04:49:33.676Z,27.52
2023-05-19T04:50:33.895Z,28.14
2023-05-19T04:51:33.738Z,30.70
2023-05-19T04:52:33.757Z,29.52
2023-05-19T04:53:33.758Z,29.73
2023-05-19T04:54:33.738Z,30.27
2023-05-19T04:55:33.742Z,28.95
2023-05-19T04:56:33.748Z,29.07
2023-05-19T04:57:33.750Z,31.81
2023-05-19T04:58:33.762Z,29.73
2023-05-19T04:59:33.761Z,30.53
2023-05-19T05:00:33.896Z,30.23
2023-05-19T05:01:33.813Z,31.11
2023-05-19T05:02:33.806Z,33.63
2023-05-19T05:03:33.850Z,30.78
2023-05-19T05:04:33.769Z,32.02
2023-05-19T05:05:33.750Z,32.12
2023-05-19T05:06:33.735Z,31.29
2023-05-19T05:07:33.760Z,30.82
2023-05-19T05:08:33.721Z,33.61
2023-05-19T05:09:33.761Z,34.10
2023-05-19T05:10:34.007Z,36.10
2023-05-19T05:11:33.768Z,36.25
2023-05-19T05:12:33.760Z,36.20
2023-05-19T05:13:33.754Z,35.82
2023-05-19T05:14:33.770Z,34.18
2023-05-19T05:15:33.779Z,34.85
2023-05-19T05:16:33.809Z,33.21
2023-05-19T05:17:33.817Z,32.67
2023-05-19T05:18:33.747Z,34.30
2023-05-19T05:19:33.812Z,32.32
2023-05-19T05:20:33.939Z,33.86
2023-05-19T05:21:33.761Z,33.99
2023-05-19T05:22:33.736Z,34.13
2023-05-19T05:23:33.735Z,34.49
2023-05-19T05:24:33.731Z,34.88
2023-05-19T05:25:33.979Z,35.81
2023-05-19T05:26:33.725Z,36.28
2023-05-19T05:27:33.737Z,35.07
2023-05-19T05:28:33.737Z,36.03
2023-05-19T05:29:33.735Z,36.57
2023-05-19T05:30:33.753Z,33.72
2023-05-19T05:31:33.752Z,37.57
2023-05-19T05:32:33.783Z,35.39
2023-05-19T05:33:33.822Z,36.39
2023-05-19T05:34:33.752Z,35.40
2023-05-19T05:35:34.032Z,35.01
2023-05-19T05:36:33.808Z,38.01
2023-05-19T05:37:33.840Z,35.66
2023-05-19T05:38:33.871Z,38.00
2023-05-19T05:39:33.920Z,38.99
2023-05-19T05:40:33.956Z,41.60
2023-05-19T05:41:34.011Z,43.60
2023-05-19T05:42:34.021Z,43.58
2023-05-19T05:43:34.087Z,44.57
2023-05-19T05:44:34.134Z,45.57
2023-05-19T05:45:34.390Z,43.92
2023-05-19T05:46:34.279Z,46.48
2023-05-19T05:47:34.328Z,45.90
2023-05-19T05:48:34.460Z,44.65
2023-05-19T05:49:34.387Z,44.27
2023-05-19T05:50:34.447Z,45.34
2023-05-19T05:51:34.447Z,45.33
2023-05-19T05:52:34.462Z,44.23
2023-05-19T05:53:34.519Z,46.08
2023-05-19T05:54:34.574Z,46.62
2023-05-19T05:55:34.771Z,44.45
2023-05-19T05:56:34.734Z,43.98
2023-05-19T05:57:34.777Z,45.63
2023-05-19T05:58:36.303Z,46.81
2023-05-19T05:59:34.909Z,44.71
2023-05-19T06:00:35.154Z,46.14
2023-05-19T06:01:35.655Z,44.96
2023-05-19T06:02:35.078Z,45.21
2023-05-19T06:03:35.033Z,45.51
2023-05-19T06:04:35.011Z,45.59
2023-05-19T06:05:35.098Z,47.47
2023-05-19T06:06:35.011Z,47.93
2023-05-19T06:07:34.989Z,48.08
2023-05-19T06:08:34.990Z,46.04
2023-05-19T06:09:34.993Z,47.24
2023-05-19T06:10:35.264Z,46.90
2023-05-19T06:11:35.107Z,46.95
2023-05-19T06:12:35.132Z,50.14
2023-05-19T06:13:35.185Z,49.37
2023-05-19T06:14:35.244Z,49.10
2023-05-19T06:15:35.369Z,50.70
2023-05-19T06:16:35.534Z,50.48
2023-05-19T06:17:35.474Z,49.40
2023-05-19T06:18:35.478Z,49.37
2023-05-19T06:19:35.525Z,50.70
2023-05-19T06:20:35.716Z,50.02
2023-05-19T06:21:35.608Z,49.94
2023-05-19T06:22:35.627Z,49.96
2023-05-19T06:23:35.642Z,52.18
2023-05-19T06:24:36.601Z,53.29
2023-05-19T06:25:35.697Z,56.01
2023-05-19T06:26:35.696Z,56.94
2023-05-19T06:27:35.704Z,57.44
2023-05-19T06:28:35.706Z,57.18
2023-05-19T06:29:35.714Z,57.05
2023-05-19T06:30:35.721Z,60.07
2023-05-19T06:31:35.821Z,60.23
2023-05-19T06:32:35.779Z,61.65
2023-05-19T06:33:35.813Z,61.14
2023-05-19T06:34:35.751Z,59.99
2023-05-19T06:35:35.757Z,59.05
2023-05-19T06:36:35.784Z,60.87
2023-05-19T06:37:35.767Z,60.37
2023-05-19T06:38:35.816Z,60.50
2023-05-19T06:39:35.778Z,62.88
2023-05-19T06:40:35.814Z,59.17
2023-05-19T06:41:35.791Z,59.51
2023-05-19T06:42:35.777Z,62.44
2023-05-19T06:43:35.807Z,60.29
2023-05-19T06:44:35.790Z,59.40
2023-05-19T06:45:35.788Z,60.17
2023-05-19T06:46:35.810Z,58.96
2023-05-19T06:47:35.823Z,58.36
2023-05-19T06:48:35.806Z,59.23
2023-05-19T06:49:35.806Z,60.45
2023-05-19T06:50:35.859Z,58.47
2023-05-19T06:51:35.820Z,58.57
2023-05-19T06:52:35.804Z,59.89
2023-05-19T06:53:35.843Z,57.54
2023-05-19T06:54:35.817Z,63.39
2023-05-19T06:55:43.971Z,61.94
2023-05-19T06:56:36.869Z,62.40
2023-05-19T06:57:35.824Z,64.05
2023-05-19T06:58:35.835Z,67.44
2023-05-19T06:59:35.837Z,75.90
2023-05-19T07:00:36.023Z,90.56
2023-05-19T07:01:35.868Z,142.29
2023-05-19T07:02:36.003Z,147.17
2023-05-19T07:03:35.886Z,153.97
2023-05-19T07:04:35.904Z,151.77
2023-05-19T07:05:35.995Z,151.45
2023-05-19T07:06:36.052Z,150.69
2023-05-19T07:07:36.111Z,150.46
2023-05-19T07:08:36.173Z,151.64
2023-05-19T07:09:36.253Z,150.18
2023-05-19T07:10:36.271Z,154.15
2023-05-19T07:11:36.321Z,157.51
2023-05-19T07:12:36.362Z,155.32
2023-05-19T07:13:36.408Z,158.67
2023-05-19T07:14:36.512Z,161.36
2023-05-19T07:15:36.510Z,161.97
2023-05-19T07:16:36.632Z,161.81
2023-05-19T07:17:36.625Z,166.33
2023-05-19T07:18:36.640Z,166.49
2023-05-19T07:19:36.666Z,170.84
2023-05-19T07:20:36.709Z,173.52
2023-05-19T07:21:36.744Z,171.86
2023-05-19T07:22:36.797Z,174.64
2023-05-19T07:23:36.813Z,176.21
2023-05-19T07:24:36.849Z,175.40
2023-05-19T07:25:36.889Z,177.61
2023-05-19T07:26:36.934Z,179.08
2023-05-19T07:27:36.978Z,180.10
2023-05-19T07:28:38.719Z,193.60
2023-05-19T07:29:37.018Z,207.57
2023-05-19T07:30:37.015Z,211.28
2023-05-19T07:31:37.042Z,231.25
2023-05-19T07:32:37.026Z,246.85
2023-05-19T07:33:37.009Z,251.87
2023-05-19T07:34:37.015Z,242.05
2023-05-19T07:35:37.015Z,270.14
2023-05-19T07:36:37.025Z,267.48
2023-05-19T07:37:36.984Z,256.51
2023-05-19T07:38:37.020Z,249.21
2023-05-19T07:39:36.992Z,241.25
2023-05-19T07:40:37.095Z,239.57
2023-05-19T07:41:37.043Z,246.51
2023-05-19T07:42:36.983Z,248.71
2023-05-19T07:43:36.974Z,250.00
2023-05-19T07:44:36.973Z,246.72
2023-05-19T07:45:37.049Z,242.75
2023-05-19T07:46:37.192Z,240.65
2023-05-19T07:47:37.028Z,236.90
2023-05-19T07:48:36.967Z,234.60
2023-05-19T07:49:36.973Z,237.81
2023-05-19T07:50:36.976Z,236.70
2023-05-19T07:51:37.009Z,232.95
2023-05-19T07:52:36.982Z,228.53
2023-05-19T07:53:36.980Z,237.62
2023-05-19T07:54:36.978Z,233.59
2023-05-19T07:55:36.959Z,222.95
2023-05-19T07:56:36.946Z,214.82
2023-05-19T07:57:36.946Z,215.28
2023-05-19T07:58:36.932Z,211.99
2023-05-19T07:59:36.943Z,208.75
2023-05-19T08:00:36.960Z,208.42
2023-05-19T08:01:36.946Z,202.79
2023-05-19T08:02:37.020Z,199.05
2023-05-19T08:03:37.094Z,195.74
2023-05-19T08:04:37.013Z,187.27
2023-05-19T08:05:36.952Z,171.59
2023-05-19T08:06:36.909Z,162.24
2023-05-19T08:07:36.919Z,157.00
2023-05-19T08:08:36.926Z,150.75
2023-05-19T08:09:36.915Z,140.44
2023-05-19T08:10:36.904Z,139.26
2023-05-19T08:11:36.931Z,130.09
2023-05-19T08:12:36.945Z,121.28
2023-05-19T08:13:36.951Z,117.60
2023-05-19T08:14:36.917Z,110.16
2023-05-19T08:15:36.951Z,104.09
2023-05-19T08:16:36.914Z,98.54
2023-05-19T08:17:36.979Z,99.98
2023-05-19T08:18:37.034Z,92.34
2023-05-19T08:19:36.930Z,85.29
2023-05-19T08:20:36.934Z,83.44
2023-05-19T08:21:36.949Z,77.56
2023-05-19T08:22:36.934Z,77.10
2023-05-19T08:23:36.940Z,71.16
2023-05-19T08:24:36.957Z,66.74
2023-05-19T08:25:36.947Z,61.15
2023-05-19T08:26:37.748Z,62.40
2023-05-19T08:27:36.971Z,62.44
2023-05-19T08:28:36.953Z,59.06
2023-05-19T08:29:36.963Z,55.94
2023-05-19T08:30:36.957Z,51.82
2023-05-19T08:31:36.997Z,51.31
2023-05-19T08:32:37.011Z,45.70
2023-05-19T08:33:36.989Z,44.57
2023-05-19T08:34:37.074Z,38.60
2023-05-19T08:35:36.984Z,37.74
2023-05-19T08:36:37.030Z,37.60
2023-05-19T08:37:36.982Z,31.17
2023-05-19T08:38:36.985Z,30.28
2023-05-19T08:39:36.995Z,30.02
2023-05-19T08:40:37.001Z,27.44
2023-05-19T08:41:37.024Z,28.73
2023-05-19T08:42:37.008Z,25.48
2023-05-19T08:43:37.015Z,24.31
2023-05-19T08:44:37.028Z,26.59
2023-05-19T08:45:37.019Z,26.66
2023-05-19T08:46:37.122Z,28.90
2023-05-19T08:47:37.086Z,26.76
2023-05-19T08:48:37.040Z,26.82
2023-05-19T08:49:37.061Z,27.09
2023-05-19T08:50:37.051Z,28.29
2023-05-19T08:51:37.069Z,33.11
2023-05-19T08:52:37.059Z,35.67
2023-05-19T08:53:37.098Z,43.11
2023-05-19T08:54:37.051Z,42.94
2023-05-19T08:55:37.085Z,43.37
2023-05-19T08:56:37.064Z,46.38
2023-05-19T08:57:37.071Z,50.28
2023-05-19T08:58:37.086Z,50.90
2023-05-19T08:59:37.083Z,46.49
2023-05-19T09:00:37.442Z,50.09
2023-05-19T09:02:37.120Z,53.25
2023-05-19T09:03:37.135Z,53.37
2023-05-19T09:04:37.165Z,59.07
2023-05-19T09:05:37.162Z,62.89
2023-05-19T09:06:37.094Z,61.52
2023-05-19T09:07:37.125Z,64.91
2023-05-19T09:08:37.088Z,65.46
2023-05-19T09:09:37.084Z,69.76
2023-05-19T09:10:37.104Z,70.14
2023-05-19T09:11:37.095Z,71.98
2023-05-19T09:12:37.085Z,72.03
2023-05-19T09:13:37.104Z,72.40
2023-05-19T09:14:37.096Z,72.14
2023-05-19T09:15:37.115Z,70.20
2023-05-19T09:16:37.114Z,72.98
2023-05-19T09:17:37.128Z,75.14
2023-05-19T09:18:37.125Z,76.44
2023-05-19T09:19:37.077Z,76.96
2023-05-19T09:20:37.080Z,77.76
2023-05-19T09:21:37.090Z,77.42
2023-05-19T09:22:37.058Z,79.74
2023-05-19T09:23:37.071Z,84.46
2023-05-19T09:24:37.041Z,83.73
2023-05-19T09:25:37.091Z,81.50
2023-05-19T09:26:37.126Z,83.79
2023-05-19T09:27:37.179Z,86.33
2023-05-19T09:28:37.260Z,86.76
2023-05-19T09:29:37.251Z,86.86
2023-05-19T09:30:37.230Z,87.16
2023-05-19T09:31:37.254Z,87.97
2023-05-19T09:32:37.275Z,88.69
2023-05-19T09:33:37.261Z,91.48
2023-05-19T09:34:37.222Z,90.45
2023-05-19T09:35:37.247Z,92.62
2023-05-19T09:36:37.254Z,93.70
2023-05-19T09:37:37.376Z,95.52
2023-05-19T09:38:37.368Z,94.91
2023-05-19T09:39:37.426Z,95.54
2023-05-19T09:40:37.489Z,97.13
2023-05-19T09:41:37.559Z,96.27
2023-05-19T09:42:37.618Z,98.46
2023-05-19T09:43:37.699Z,99.23
2023-05-19T09:44:37.748Z,98.09
2023-05-19T09:45:37.789Z,100.54
2023-05-19T09:46:37.968Z,101.64
2023-05-19T09:47:37.990Z,102.17
2023-05-19T09:48:37.973Z,103.86
2023-05-19T09:49:38.052Z,103.44
2023-05-19T09:50:38.078Z,103.25
2023-05-19T09:51:38.160Z,104.52
2023-05-19T09:52:38.192Z,103.76
2023-05-19T09:53:38.238Z,106.01
2023-05-19T09:54:38.276Z,105.54
2023-05-19T09:55:38.331Z,108.73
2023-05-19T09:56:38.423Z,106.62
2023-05-19T09:57:38.426Z,108.04
2023-05-19T09:58:38.485Z,109.92
2023-05-19T09:59:38.517Z,110.94
2023-05-19T10:00:38.571Z,109.57
2023-05-19T10:01:38.739Z,109.66
2023-05-19T10:02:38.660Z,110.31
2023-05-19T10:03:38.687Z,110.95
2023-05-19T10:04:38.858Z,111.55
2023-05-19T10:05:38.774Z,113.54
2023-05-19T10:06:38.816Z,115.46
2023-05-19T10:07:38.851Z,115.17
2023-05-19T10:08:38.883Z,114.19
2023-05-19T10:09:38.951Z,112.51
2023-05-19T10:10:38.965Z,114.20
2023-05-19T10:11:39.015Z,115.95
2023-05-19T10:12:39.035Z,117.88
2023-05-19T10:13:39.073Z,115.36
2023-05-19T10:14:39.120Z,117.46
2023-05-19T10:15:53.732Z,118.24
2023-05-19T10:16:40.173Z,118.39
2023-05-19T10:17:39.167Z,118.72
2023-05-19T10:18:39.921Z,118.76
2023-05-19T10:19:39.082Z,120.31
2023-05-19T10:20:39.088Z,118.46
2023-05-19T10:21:39.081Z,119.01
2023-05-19T10:22:39.064Z,120.26
2023-05-19T10:23:39.036Z,121.04
2023-05-19T10:24:39.012Z,122.73
2023-05-19T10:25:39.018Z,122.96
2023-05-19T10:26:39.009Z,124.13
2023-05-19T10:27:38.994Z,126.27
2023-05-19T10:28:38.968Z,123.91
2023-05-19T10:29:38.979Z,125.08
2023-05-19T10:30:38.972Z,125.04
2023-05-19T10:31:39.020Z,125.76
2023-05-19T10:32:39.146Z,127.12
2023-05-19T10:33:39.125Z,127.67
2023-05-19T10:34:39.146Z,126.35
2023-05-19T10:35:39.201Z,127.03
2023-05-19T10:36:39.227Z,129.88
2023-05-19T10:37:39.282Z,128.56
2023-05-19T10:38:39.311Z,128.36
2023-05-19T10:39:39.380Z,128.61
2023-05-19T10:40:39.405Z,127.84
2023-05-19T10:41:39.454Z,128.40
2023-05-19T10:42:39.486Z,129.91
2023-05-19T10:43:39.532Z,128.77
2023-05-19T10:44:39.568Z,128.93
2023-05-19T10:45:39.624Z,128.07
2023-05-19T10:46:39.701Z,131.22
2023-05-19T10:47:39.726Z,132.37
2023-05-19T10:48:39.742Z,130.81
2023-05-19T10:49:39.804Z,130.94
2023-05-19T10:50:39.827Z,132.95
2023-05-19T10:51:39.879Z,132.95
2023-05-19T10:52:39.957Z,134.96
2023-05-19T10:53:39.949Z,133.19
2023-05-19T10:54:39.991Z,132.72
2023-05-19T10:55:40.035Z,135.01
2023-05-19T10:56:40.069Z,132.58
2023-05-19T10:57:40.108Z,135.34
2023-05-19T10:58:40.135Z,134.50
2023-05-19T10:59:40.219Z,132.50
2023-05-19T11:00:40.245Z,136.88
2023-05-19T11:01:40.321Z,134.69
2023-05-19T11:02:40.398Z,137.15
2023-05-19T11:03:42.937Z,138.82
2023-05-19T11:04:40.361Z,137.40
2023-05-19T11:05:40.310Z,136.78
2023-05-19T11:06:40.329Z,136.26
2023-05-19T11:07:40.346Z,138.47
2023-05-19T11:08:40.295Z,136.75
2023-05-19T11:09:40.681Z,136.88
2023-05-19T11:10:40.250Z,139.14
2023-05-19T11:11:40.269Z,138.86
2023-05-19T11:12:40.276Z,138.45
2023-05-19T11:13:40.217Z,139.56
2023-05-19T11:14:40.216Z,139.43
2023-05-19T11:15:40.211Z,137.85
2023-05-19T11:16:40.270Z,139.76
2023-05-19T11:17:40.250Z,140.20
2023-05-19T11:18:40.226Z,138.53
2023-05-19T11:19:40.148Z,139.82
2023-05-19T11:20:40.181Z,139.82
2023-05-19T11:21:40.137Z,140.92
2023-05-19T11:22:40.132Z,141.44
2023-05-19T11:23:40.168Z,139.00
2023-05-19T11:24:40.224Z,141.65
2023-05-19T11:25:40.093Z,142.20
2023-05-19T11:26:40.097Z,142.16
2023-05-19T11:27:40.112Z,143.42
2023-05-19T11:28:40.074Z,143.35
2023-05-19T11:29:40.083Z,144.26
2023-05-19T11:30:40.099Z,143.48
2023-05-19T11:31:40.129Z,143.28
2023-05-19T11:32:40.120Z,143.60
2023-05-19T11:33:40.038Z,142.11
2023-05-19T11:34:40.066Z,144.02
2023-05-19T11:35:40.228Z,144.72
2023-05-19T11:36:40.022Z,144.81
2023-05-19T11:37:40.027Z,144.85
2023-05-19T11:38:39.998Z,144.85
2023-05-19T11:39:39.982Z,145.24
2023-05-19T11:40:40.008Z,145.06
2023-05-19T11:41:39.950Z,146.13
2023-05-19T11:42:39.955Z,145.05
2023-05-19T11:43:39.932Z,144.54
2023-05-19T11:44:39.996Z,146.13
2023-05-19T11:45:39.933Z,147.10
2023-05-19T11:46:39.934Z,144.72
2023-05-19T11:47:56.477Z,144.50
2023-05-19T11:48:40.907Z,144.65
2023-05-19T11:49:39.873Z,145.20
2023-05-19T11:50:39.841Z,145.68
2023-05-19T11:51:39.838Z,146.04
2023-05-19T11:52:39.826Z,147.11
2023-05-19T11:53:39.802Z,148.85
2023-05-19T11:54:39.816Z,146.17
2023-05-19T11:55:39.766Z,149.55
2023-05-19T11:56:39.751Z,148.21
2023-05-19T11:57:40.511Z,148.47
2023-05-19T11:58:39.716Z,147.86
2023-05-19T11:59:39.705Z,148.97
2023-05-19T12:00:40.219Z,150.33
2023-05-19T12:01:39.668Z,148.40
2023-05-19T12:02:39.809Z,149.48
2023-05-19T12:03:39.785Z,149.41
2023-05-19T12:04:39.656Z,142.07
2023-05-19T12:05:42.739Z,145.56
2023-05-19T12:06:39.699Z,145.73
2023-05-19T12:07:39.646Z,146.21
2023-05-19T12:08:39.521Z,147.32
2023-05-19T12:09:39.533Z,148.38
2023-05-19T12:10:39.531Z,149.50
2023-05-19T12:11:39.473Z,150.67
2023-05-19T12:12:39.442Z,149.39
2023-05-19T12:13:39.448Z,150.17
2023-05-19T12:14:39.411Z,149.18
2023-05-19T12:15:42.973Z,149.73
2023-05-19T12:16:39.395Z,149.93
2023-05-19T12:17:39.384Z,150.07
2023-05-19T12:18:39.370Z,150.19
2023-05-19T12:19:39.391Z,150.01
2023-05-19T12:20:39.350Z,150.24
2023-05-19T12:21:39.287Z,151.22
2023-05-19T12:22:39.288Z,151.76
2023-05-19T12:23:39.268Z,152.25
2023-05-19T12:24:39.269Z,155.15
2023-05-19T12:25:39.260Z,155.23
2023-05-19T12:26:39.218Z,155.24
2023-05-19T12:27:39.219Z,153.74
2023-05-19T12:28:39.169Z,155.28
2023-05-19T12:29:39.161Z,154.39
2023-05-19T12:30:39.286Z,151.73
2023-05-19T12:31:39.141Z,152.01
2023-05-19T12:32:39.159Z,150.58
2023-05-19T12:33:39.089Z,153.42
2023-05-19T12:34:39.089Z,151.31
2023-05-19T12:35:39.105Z,154.97
2023-05-19T12:36:39.062Z,154.40
2023-05-19T12:37:39.057Z,153.46
2023-05-19T12:38:39.053Z,155.00
2023-05-19T12:39:39.057Z,154.96
2023-05-19T12:40:39.074Z,153.38
2023-05-19T12:41:39.111Z,152.63
2023-05-19T12:42:39.154Z,153.11
2023-05-19T12:43:39.152Z,154.29
2023-05-19T12:44:39.202Z,152.00
2023-05-19T12:45:39.299Z,154.58